sensor_id;sensor_type;location;lat;lon;timestamp;noise_LAeq;noise_LA_min;noise_LA_max;noise_LA01;noise_LA95
67310;Laerm;65444;51.438;5.982;2023-08-24T00:00:01;32.52;30.72;43.92;;
67310;Laerm;65444;51.438;5.982;2023-08-24T00:00:11;36.11;31.58;47.79;;
67310;Laerm;65444;51.438;5.982;2023-08-24T00:00:22;36.71;34.63;40.71;;
67310;Laerm;65444;51.438;5.982;2023-08-24T00:00:32;39.29;36.76;41.19;;
67310;Laerm;65444;51.438;5.982;2023-08-24T00:00:43;39.56;37.34;44.76;;
67310;Laerm;65444;51.438;5.982;2023-08-24T00:00:54;38.30;35.58;40.49;;
67310;Laerm;65444;51.438;5.982;2023-08-24T00:01:04;35.66;33.28;41.64;;
67310;Laerm;65444;51.438;5.982;2023-08-24T00:01:14;35.95;33.59;38.74;;
67310;Laerm;65444;51.438;5.982;2023-08-24T00:01:26;36.81;34.72;39.37;;
67310;Laerm;65444;51.438;5.982;2023-08-24T00:01:36;34.73;32.55;38.69;;
67310;Laerm;65444;51.438;5.982;2023-08-24T00:01:47;34.90;31.95;43.81;;
67310;Laerm;65444;51.438;5.982;2023-08-24T00:01:57;33.09;30.22;38.21;;
67310;Laerm;65444;51.438;5.982;2023-08-24T00:02:08;31.33;29.33;33.80;;
67310;Laerm;65444;51.438;5.982;2023-08-24T00:02:18;32.72;29.25;49.60;;
67310;Laerm;65444;51.438;5.982;2023-08-24T00:02:29;31.77;28.59;45.25;;
67310;Laerm;65444;51.438;5.982;2023-08-24T00:02:39;29.89;28.70;31.32;;
67310;Laerm;65444;51.438;5.982;2023-08-24T00:02:49;30.13;28.71;38.80;;
67310;Laerm;65444;51.438;5.982;2023-08-24T00:03:00;29.82;28.16;33.05;;
67310;Laerm;65444;51.438;5.982;2023-08-24T00:03:13;30.20;28.44;32.40;;
67310;Laerm;65444;51.438;5.982;2023-08-24T00:03:23;32.52;29.47;45.46;;
67310;Laerm;65444;51.438;5.982;2023-08-24T00:03:33;31.21;29.29;37.80;;
67310;Laerm;65444;51.438;5.982;2023-08-24T00:03:44;32.70;29.32;36.02;;
67310;Laerm;65444;51.438;5.982;2023-08-24T00:03:56;32.55;29.96;44.92;;
67310;Laerm;65444;51.438;5.982;2023-08-24T00:04:06;34.06;29.23;50.96;;
67310;Laerm;65444;51.438;5.982;2023-08-24T00:04:18;30.27;28.91;32.42;;
67310;Laerm;65444;51.438;5.982;2023-08-24T00:04:28;30.40;28.59;35.20;;
67310;Laerm;65444;51.438;5.982;2023-08-24T00:04:39;33.29;29.39;51.40;;
67310;Laerm;65444;51.438;5.982;2023-08-24T00:04:49;30.19;28.67;32.06;;
67310;Laerm;65444;51.438;5.982;2023-08-24T00:04:59;31.01;28.45;47.65;;
67310;Laerm;65444;51.438;5.982;2023-08-24T00:05:10;30.06;28.44;37.87;;
67310;Laerm;65444;51.438;5.982;2023-08-24T00:05:21;29.75;28.28;32.22;;
67310;Laerm;65444;51.438;5.982;2023-08-24T00:05:34;31.67;28.21;50.88;;
67310;Laerm;65444;51.438;5.982;2023-08-24T00:05:47;29.74;27.95;32.19;;
67310;Laerm;65444;51.438;5.982;2023-08-24T00:05:58;29.76;28.27;32.53;;
67310;Laerm;65444;51.438;5.982;2023-08-24T00:06:08;29.82;28.08;31.50;;
67310;Laerm;65444;51.438;5.982;2023-08-24T00:06:19;29.93;28.47;34.98;;
67310;Laerm;65444;51.438;5.982;2023-08-24T00:06:29;29.92;28.46;33.81;;
67310;Laerm;65444;51.438;5.982;2023-08-24T00:06:40;32.44;28.44;52.15;;
67310;Laerm;65444;51.438;5.982;2023-08-24T00:06:53;30.35;28.60;39.00;;
67310;Laerm;65444;51.438;5.982;2023-08-24T00:07:03;29.93;28.50;31.80;;
67310;Laerm;65444;51.438;5.982;2023-08-24T00:07:13;31.53;28.61;45.72;;
67310;Laerm;65444;51.438;5.982;2023-08-24T00:07:24;30.42;27.87;41.37;;
67310;Laerm;65444;51.438;5.982;2023-08-24T00:07:34;30.10;28.15;38.07;;
67310;Laerm;65444;51.438;5.982;2023-08-24T00:07:45;30.58;28.48;46.70;;
67310;Laerm;65444;51.438;5.982;2023-08-24T00:07:55;29.96;28.68;36.09;;
67310;Laerm;65444;51.438;5.982;2023-08-24T00:08:06;30.09;28.88;32.40;;
67310;Laerm;65444;51.438;5.982;2023-08-24T00:08:16;29.94;28.28;35.32;;
67310;Laerm;65444;51.438;5.982;2023-08-24T00:08:27;32.10;28.51;50.76;;
67310;Laerm;65444;51.438;5.982;2023-08-24T00:08:37;29.85;28.40;36.69;;
67310;Laerm;65444;51.438;5.982;2023-08-24T00:08:48;31.31;28.32;49.48;;
67310;Laerm;65444;51.438;5.982;2023-08-24T00:08:58;29.76;28.22;34.21;;
67310;Laerm;65444;51.438;5.982;2023-08-24T00:09:09;29.69;28.48;32.49;;
67310;Laerm;65444;51.438;5.982;2023-08-24T00:09:20;29.62;28.20;31.39;;
67310;Laerm;65444;51.438;5.982;2023-08-24T00:09:31;30.00;28.33;38.12;;
67310;Laerm;65444;51.438;5.982;2023-08-24T00:09:41;29.80;28.28;31.58;;
67310;Laerm;65444;51.438;5.982;2023-08-24T00:09:52;29.76;28.32;33.48;;
67310;Laerm;65444;51.438;5.982;2023-08-24T00:10:03;29.87;28.43;36.89;;
67310;Laerm;65444;51.438;5.982;2023-08-24T00:10:14;29.68;28.33;34.39;;
67310;Laerm;65444;51.438;5.982;2023-08-24T00:10:25;29.74;28.28;31.31;;
67310;Laerm;65444;51.438;5.982;2023-08-24T00:10:35;29.90;28.19;36.66;;
67310;Laerm;65444;51.438;5.982;2023-08-24T00:10:46;29.75;27.69;32.59;;
67310;Laerm;65444;51.438;5.982;2023-08-24T00:10:56;29.78;28.51;31.19;;
67310;Laerm;65444;51.438;5.982;2023-08-24T00:11:07;29.70;28.32;31.12;;
67310;Laerm;65444;51.438;5.982;2023-08-24T00:11:18;29.81;28.62;31.92;;
67310;Laerm;65444;51.438;5.982;2023-08-24T00:11:28;29.94;28.43;37.85;;
67310;Laerm;65444;51.438;5.982;2023-08-24T00:11:38;29.73;28.51;31.84;;
67310;Laerm;65444;51.438;5.982;2023-08-24T00:11:49;29.73;28.28;33.08;;
67310;Laerm;65444;51.438;5.982;2023-08-24T00:12:00;29.61;28.12;31.02;;
67310;Laerm;65444;51.438;5.982;2023-08-24T00:12:10;29.62;28.08;30.93;;
67310;Laerm;65444;51.438;5.982;2023-08-24T00:12:21;29.61;28.24;31.92;;
67310;Laerm;65444;51.438;5.982;2023-08-24T00:12:32;29.64;28.17;31.47;;
67310;Laerm;65444;51.438;5.982;2023-08-24T00:12:43;29.91;28.25;38.44;;
67310;Laerm;65444;51.438;5.982;2023-08-24T00:12:53;30.06;27.98;39.85;;
67310;Laerm;65444;51.438;5.982;2023-08-24T00:13:04;29.68;28.43;33.21;;
67310;Laerm;65444;51.438;5.982;2023-08-24T00:13:14;29.61;28.18;32.20;;
67310;Laerm;65444;51.438;5.982;2023-08-24T00:13:25;29.66;28.05;31.05;;
67310;Laerm;65444;51.438;5.982;2023-08-24T00:13:36;29.72;28.44;31.63;;
67310;Laerm;65444;51.438;5.982;2023-08-24T00:13:46;29.79;28.36;31.19;;
67310;Laerm;65444;51.438;5.982;2023-08-24T00:13:59;29.78;28.31;35.70;;
67310;Laerm;65444;51.438;5.982;2023-08-24T00:14:09;29.74;28.35;32.66;;
67310;Laerm;65444;51.438;5.982;2023-08-24T00:14:20;29.78;28.50;31.20;;
67310;Laerm;65444;51.438;5.982;2023-08-24T00:14:30;29.98;28.52;37.86;;
67310;Laerm;65444;51.438;5.982;2023-08-24T00:14:41;30.08;28.68;34.49;;
67310;Laerm;65444;51.438;5.982;2023-08-24T00:14:52;29.73;28.38;31.13;;
67310;Laerm;65444;51.438;5.982;2023-08-24T00:15:03;29.79;28.33;31.85;;
67310;Laerm;65444;51.438;5.982;2023-08-24T00:15:14;29.68;28.07;32.07;;
67310;Laerm;65444;51.438;5.982;2023-08-24T00:15:24;29.64;28.26;32.51;;
67310;Laerm;65444;51.438;5.982;2023-08-24T00:15:35;29.57;28.36;31.13;;
67310;Laerm;65444;51.438;5.982;2023-08-24T00:15:46;29.59;27.76;31.53;;
67310;Laerm;65444;51.438;5.982;2023-08-24T00:15:56;29.86;28.79;31.27;;
67310;Laerm;65444;51.438;5.982;2023-08-24T00:16:07;30.60;28.96;32.90;;
67310;Laerm;65444;51.438;5.982;2023-08-24T00:16:18;30.15;28.62;32.77;;
67310;Laerm;65444;51.438;5.982;2023-08-24T00:16:29;30.93;29.39;33.35;;
67310;Laerm;65444;51.438;5.982;2023-08-24T00:16:39;31.04;28.60;34.15;;
67310;Laerm;65444;51.438;5.982;2023-08-24T00:16:50;31.30;28.94;34.40;;
67310;Laerm;65444;51.438;5.982;2023-08-24T00:17:01;30.51;28.41;37.10;;
67310;Laerm;65444;51.438;5.982;2023-08-24T00:17:11;29.74;28.20;31.19;;
67310;Laerm;65444;51.438;5.982;2023-08-24T00:17:21;29.80;28.01;31.62;;
67310;Laerm;65444;51.438;5.982;2023-08-24T00:17:33;29.85;28.62;34.86;;
67310;Laerm;65444;51.438;5.982;2023-08-24T00:17:43;29.85;27.87;32.98;;
67310;Laerm;65444;51.438;5.982;2023-08-24T00:17:54;29.85;28.39;33.05;;
67310;Laerm;65444;51.438;5.982;2023-08-24T00:18:05;30.05;28.15;37.71;;
67310;Laerm;65444;51.438;5.982;2023-08-24T00:18:15;29.72;28.32;31.14;;
67310;Laerm;65444;51.438;5.982;2023-08-24T00:18:28;29.67;28.17;31.28;;
67310;Laerm;65444;51.438;5.982;2023-08-24T00:18:38;29.65;27.90;31.13;;
67310;Laerm;65444;51.438;5.982;2023-08-24T00:18:49;29.79;28.29;33.45;;
67310;Laerm;65444;51.438;5.982;2023-08-24T00:19:00;29.70;28.05;31.28;;
67310;Laerm;65444;51.438;5.982;2023-08-24T00:19:10;29.82;28.44;32.21;;
67310;Laerm;65444;51.438;5.982;2023-08-24T00:19:21;29.94;28.33;41.12;;
67310;Laerm;65444;51.438;5.982;2023-08-24T00:19:31;29.75;28.52;31.18;;
67310;Laerm;65444;51.438;5.982;2023-08-24T00:19:41;30.75;28.59;47.93;;
67310;Laerm;65444;51.438;5.982;2023-08-24T00:19:52;29.95;28.19;38.27;;
67310;Laerm;65444;51.438;5.982;2023-08-24T00:20:03;30.88;28.42;44.77;;
67310;Laerm;65444;51.438;5.982;2023-08-24T00:20:14;29.61;28.21;31.60;;
67310;Laerm;65444;51.438;5.982;2023-08-24T00:20:24;30.18;28.37;41.01;;
67310;Laerm;65444;51.438;5.982;2023-08-24T00:20:35;30.05;28.21;40.78;;
67310;Laerm;65444;51.438;5.982;2023-08-24T00:20:47;29.66;28.03;31.40;;
67310;Laerm;65444;51.438;5.982;2023-08-24T00:20:58;31.27;27.86;48.11;;
67310;Laerm;65444;51.438;5.982;2023-08-24T00:21:08;29.72;28.07;35.41;;
67310;Laerm;65444;51.438;5.982;2023-08-24T00:21:19;30.76;28.05;42.97;;
67310;Laerm;65444;51.438;5.982;2023-08-24T00:21:32;29.72;28.04;40.26;;
67310;Laerm;65444;51.438;5.982;2023-08-24T00:21:43;31.28;28.35;46.98;;
67310;Laerm;65444;51.438;5.982;2023-08-24T00:21:53;29.67;27.93;34.38;;
67310;Laerm;65444;51.438;5.982;2023-08-24T00:22:04;29.67;27.99;33.67;;
67310;Laerm;65444;51.438;5.982;2023-08-24T00:22:14;29.59;28.30;30.87;;
67310;Laerm;65444;51.438;5.982;2023-08-24T00:22:24;31.01;28.06;47.20;;
67310;Laerm;65444;51.438;5.982;2023-08-24T00:22:35;29.79;28.11;37.91;;
67310;Laerm;65444;51.438;5.982;2023-08-24T00:22:45;29.90;28.21;36.72;;
67310;Laerm;65444;51.438;5.982;2023-08-24T00:22:56;30.02;28.07;38.74;;
67310;Laerm;65444;51.438;5.982;2023-08-24T00:23:06;31.09;28.21;45.29;;
67310;Laerm;65444;51.438;5.982;2023-08-24T00:23:17;29.85;28.24;38.94;;
67310;Laerm;65444;51.438;5.982;2023-08-24T00:23:28;30.98;28.14;45.45;;
67310;Laerm;65444;51.438;5.982;2023-08-24T00:23:39;30.00;28.47;37.71;;
67310;Laerm;65444;51.438;5.982;2023-08-24T00:23:50;30.91;28.08;47.29;;
67310;Laerm;65444;51.438;5.982;2023-08-24T00:24:00;31.55;28.42;51.04;;
67310;Laerm;65444;51.438;5.982;2023-08-24T00:24:11;30.15;28.06;41.49;;
67310;Laerm;65444;51.438;5.982;2023-08-24T00:24:21;29.62;28.27;32.07;;
67310;Laerm;65444;51.438;5.982;2023-08-24T00:24:31;29.60;28.38;31.08;;
67310;Laerm;65444;51.438;5.982;2023-08-24T00:24:42;29.59;28.48;30.76;;
67310;Laerm;65444;51.438;5.982;2023-08-24T00:24:52;30.69;28.51;43.93;;
67310;Laerm;65444;51.438;5.982;2023-08-24T00:25:03;29.65;28.25;32.78;;
67310;Laerm;65444;51.438;5.982;2023-08-24T00:25:13;30.71;28.34;43.42;;
67310;Laerm;65444;51.438;5.982;2023-08-24T00:25:24;29.56;28.28;31.26;;
67310;Laerm;65444;51.438;5.982;2023-08-24T00:25:35;30.28;28.23;43.15;;
67310;Laerm;65444;51.438;5.982;2023-08-24T00:25:46;29.66;28.25;32.02;;
67310;Laerm;65444;51.438;5.982;2023-08-24T00:25:56;30.12;28.08;38.36;;
67310;Laerm;65444;51.438;5.982;2023-08-24T00:26:06;29.90;28.49;37.17;;
67310;Laerm;65444;51.438;5.982;2023-08-24T00:26:17;31.49;29.01;35.91;;
67310;Laerm;65444;51.438;5.982;2023-08-24T00:26:28;33.47;29.74;45.36;;
67310;Laerm;65444;51.438;5.982;2023-08-24T00:26:38;31.93;29.35;34.62;;
67310;Laerm;65444;51.438;5.982;2023-08-24T00:26:48;30.73;28.83;34.29;;
67310;Laerm;65444;51.438;5.982;2023-08-24T00:26:59;29.97;28.43;32.09;;
67310;Laerm;65444;51.438;5.982;2023-08-24T00:27:09;32.03;28.48;48.27;;
67310;Laerm;65444;51.438;5.982;2023-08-24T00:27:20;29.65;28.47;31.27;;
67310;Laerm;65444;51.438;5.982;2023-08-24T00:27:30;29.57;28.21;31.34;;
67310;Laerm;65444;51.438;5.982;2023-08-24T00:27:46;29.48;27.96;30.77;;
67310;Laerm;65444;51.438;5.982;2023-08-24T00:27:57;29.88;28.24;39.29;;
67310;Laerm;65444;51.438;5.982;2023-08-24T00:28:07;32.82;28.38;51.49;;
67310;Laerm;65444;51.438;5.982;2023-08-24T00:28:18;29.69;28.21;34.62;;
67310;Laerm;65444;51.438;5.982;2023-08-24T00:28:29;29.58;27.89;31.05;;
67310;Laerm;65444;51.438;5.982;2023-08-24T00:28:39;29.71;28.25;37.27;;
67310;Laerm;65444;51.438;5.982;2023-08-24T00:28:50;30.13;28.19;45.09;;
67310;Laerm;65444;51.438;5.982;2023-08-24T00:29:00;30.90;28.19;47.35;;
67310;Laerm;65444;51.438;5.982;2023-08-24T00:29:11;29.97;28.42;37.36;;
67310;Laerm;65444;51.438;5.982;2023-08-24T00:29:21;33.39;29.60;40.11;;
67310;Laerm;65444;51.438;5.982;2023-08-24T00:29:32;32.82;30.93;34.84;;
67310;Laerm;65444;51.438;5.982;2023-08-24T00:29:42;34.69;32.04;37.11;;
67310;Laerm;65444;51.438;5.982;2023-08-24T00:29:53;36.44;34.08;40.14;;
67310;Laerm;65444;51.438;5.982;2023-08-24T00:30:03;38.99;36.15;41.46;;
67310;Laerm;65444;51.438;5.982;2023-08-24T00:30:15;39.59;36.85;42.37;;
67310;Laerm;65444;51.438;5.982;2023-08-24T00:30:31;37.24;32.86;40.89;;
67310;Laerm;65444;51.438;5.982;2023-08-24T00:30:41;35.59;32.81;48.73;;
67310;Laerm;65444;51.438;5.982;2023-08-24T00:30:52;34.57;32.62;37.57;;
67310;Laerm;65444;51.438;5.982;2023-08-24T00:31:02;33.58;30.35;35.73;;
67310;Laerm;65444;51.438;5.982;2023-08-24T00:31:15;34.70;31.34;43.22;;
67310;Laerm;65444;51.438;5.982;2023-08-24T00:31:25;31.92;29.61;41.34;;
67310;Laerm;65444;51.438;5.982;2023-08-24T00:31:36;30.95;29.06;33.17;;
67310;Laerm;65444;51.438;5.982;2023-08-24T00:31:52;31.69;28.75;45.37;;
67310;Laerm;65444;51.438;5.982;2023-08-24T00:32:02;30.61;28.16;43.82;;
67310;Laerm;65444;51.438;5.982;2023-08-24T00:32:13;30.08;28.08;41.36;;
67310;Laerm;65444;51.438;5.982;2023-08-24T00:32:24;29.86;28.23;37.30;;
67310;Laerm;65444;51.438;5.982;2023-08-24T00:32:34;30.14;28.55;38.92;;
67310;Laerm;65444;51.438;5.982;2023-08-24T00:32:44;30.47;28.47;36.66;;
67310;Laerm;65444;51.438;5.982;2023-08-24T00:32:55;30.82;29.30;32.44;;
67310;Laerm;65444;51.438;5.982;2023-08-24T00:33:11;32.90;29.44;44.05;;
67310;Laerm;65444;51.438;5.982;2023-08-24T00:33:21;33.22;29.97;47.39;;
67310;Laerm;65444;51.438;5.982;2023-08-24T00:33:32;33.87;32.07;37.99;;
67310;Laerm;65444;51.438;5.982;2023-08-24T00:33:42;34.63;32.75;36.08;;
67310;Laerm;65444;51.438;5.982;2023-08-24T00:33:53;37.58;34.16;42.23;;
67310;Laerm;65444;51.438;5.982;2023-08-24T00:34:04;39.87;37.69;46.46;;
67310;Laerm;65444;51.438;5.982;2023-08-24T00:34:14;39.98;36.78;41.78;;
67310;Laerm;65444;51.438;5.982;2023-08-24T00:34:25;36.82;34.40;45.81;;
67310;Laerm;65444;51.438;5.982;2023-08-24T00:34:36;33.69;30.54;37.09;;
67310;Laerm;65444;51.438;5.982;2023-08-24T00:34:46;31.37;29.94;33.02;;
67310;Laerm;65444;51.438;5.982;2023-08-24T00:34:57;30.34;28.25;31.89;;
67310;Laerm;65444;51.438;5.982;2023-08-24T00:35:08;29.72;28.13;31.78;;
67310;Laerm;65444;51.438;5.982;2023-08-24T00:35:20;29.56;28.35;31.31;;
67310;Laerm;65444;51.438;5.982;2023-08-24T00:35:30;29.42;28.18;32.40;;
67310;Laerm;65444;51.438;5.982;2023-08-24T00:35:41;29.64;28.30;36.52;;
67310;Laerm;65444;51.438;5.982;2023-08-24T00:35:51;29.50;28.19;30.77;;
67310;Laerm;65444;51.438;5.982;2023-08-24T00:36:02;29.83;28.10;38.22;;
67310;Laerm;65444;51.438;5.982;2023-08-24T00:36:12;29.52;28.16;30.94;;
67310;Laerm;65444;51.438;5.982;2023-08-24T00:36:23;29.75;28.08;37.30;;
67310;Laerm;65444;51.438;5.982;2023-08-24T00:36:33;29.51;28.07;32.53;;
67310;Laerm;65444;51.438;5.982;2023-08-24T00:36:44;29.69;27.96;33.08;;
67310;Laerm;65444;51.438;5.982;2023-08-24T00:36:54;29.50;28.06;31.32;;
67310;Laerm;65444;51.438;5.982;2023-08-24T00:37:05;29.59;28.10;32.54;;
67310;Laerm;65444;51.438;5.982;2023-08-24T00:37:15;29.71;28.32;36.55;;
67310;Laerm;65444;51.438;5.982;2023-08-24T00:37:26;29.58;27.84;32.04;;
67310;Laerm;65444;51.438;5.982;2023-08-24T00:37:36;30.07;28.40;35.47;;
67310;Laerm;65444;51.438;5.982;2023-08-24T00:37:47;30.35;28.52;33.66;;
67310;Laerm;65444;51.438;5.982;2023-08-24T00:37:57;29.97;28.06;34.07;;
67310;Laerm;65444;51.438;5.982;2023-08-24T00:38:07;31.08;28.68;41.22;;
67310;Laerm;65444;51.438;5.982;2023-08-24T00:38:18;30.54;28.17;36.69;;
67310;Laerm;65444;51.438;5.982;2023-08-24T00:38:28;31.39;28.29;39.11;;
67310;Laerm;65444;51.438;5.982;2023-08-24T00:38:39;30.97;28.24;40.21;;
67310;Laerm;65444;51.438;5.982;2023-08-24T00:38:49;29.69;28.21;33.73;;
67310;Laerm;65444;51.438;5.982;2023-08-24T00:39:01;29.69;28.32;31.94;;
67310;Laerm;65444;51.438;5.982;2023-08-24T00:39:12;29.58;28.41;32.45;;
67310;Laerm;65444;51.438;5.982;2023-08-24T00:39:23;29.67;28.24;32.96;;
67310;Laerm;65444;51.438;5.982;2023-08-24T00:39:33;29.89;28.19;36.76;;
67310;Laerm;65444;51.438;5.982;2023-08-24T00:39:43;30.00;28.28;36.30;;
67310;Laerm;65444;51.438;5.982;2023-08-24T00:39:54;29.55;27.93;30.92;;
67310;Laerm;65444;51.438;5.982;2023-08-24T00:40:06;29.47;28.07;30.88;;
67310;Laerm;65444;51.438;5.982;2023-08-24T00:40:20;29.42;28.15;30.98;;
67310;Laerm;65444;51.438;5.982;2023-08-24T00:40:30;29.77;28.05;35.98;;
67310;Laerm;65444;51.438;5.982;2023-08-24T00:40:42;30.29;28.27;44.40;;
67310;Laerm;65444;51.438;5.982;2023-08-24T00:40:54;30.89;27.93;47.74;;
67310;Laerm;65444;51.438;5.982;2023-08-24T00:41:05;29.76;28.13;34.00;;
67310;Laerm;65444;51.438;5.982;2023-08-24T00:41:15;30.92;28.46;33.33;;
67310;Laerm;65444;51.438;5.982;2023-08-24T00:41:26;32.46;30.68;35.67;;
67310;Laerm;65444;51.438;5.982;2023-08-24T00:41:36;34.29;31.82;36.62;;
67310;Laerm;65444;51.438;5.982;2023-08-24T00:41:46;36.24;33.90;46.85;;
67310;Laerm;65444;51.438;5.982;2023-08-24T00:41:57;39.26;36.70;50.63;;
67310;Laerm;65444;51.438;5.982;2023-08-24T00:42:07;39.51;36.67;43.08;;
67310;Laerm;65444;51.438;5.982;2023-08-24T00:42:18;36.75;33.38;40.88;;
67310;Laerm;65444;51.438;5.982;2023-08-24T00:42:29;35.98;33.28;38.51;;
67310;Laerm;65444;51.438;5.982;2023-08-24T00:42:40;36.31;33.83;39.16;;
67310;Laerm;65444;51.438;5.982;2023-08-24T00:42:51;35.12;32.89;37.96;;
67310;Laerm;65444;51.438;5.982;2023-08-24T00:43:01;33.65;30.22;36.12;;
67310;Laerm;65444;51.438;5.982;2023-08-24T00:43:12;31.99;29.82;34.45;;
67310;Laerm;65444;51.438;5.982;2023-08-24T00:43:23;30.38;28.78;31.76;;
67310;Laerm;65444;51.438;5.982;2023-08-24T00:43:34;29.86;28.34;31.71;;
67310;Laerm;65444;51.438;5.982;2023-08-24T00:43:46;29.83;28.50;31.91;;
67310;Laerm;65444;51.438;5.982;2023-08-24T00:43:56;29.61;28.35;30.92;;
67310;Laerm;65444;51.438;5.982;2023-08-24T00:44:07;29.81;28.11;37.65;;
67310;Laerm;65444;51.438;5.982;2023-08-24T00:44:18;29.62;28.33;31.38;;
67310;Laerm;65444;51.438;5.982;2023-08-24T00:44:28;29.65;28.41;31.06;;
67310;Laerm;65444;51.438;5.982;2023-08-24T00:44:39;29.94;28.36;31.83;;
67310;Laerm;65444;51.438;5.982;2023-08-24T00:44:49;30.11;28.77;35.23;;
67310;Laerm;65444;51.438;5.982;2023-08-24T00:44:59;29.86;28.19;31.89;;
67310;Laerm;65444;51.438;5.982;2023-08-24T00:45:10;29.66;28.11;32.61;;
67310;Laerm;65444;51.438;5.982;2023-08-24T00:45:21;29.86;28.15;34.14;;
67310;Laerm;65444;51.438;5.982;2023-08-24T00:45:32;29.52;28.07;31.76;;
67310;Laerm;65444;51.438;5.982;2023-08-24T00:45:43;29.59;28.40;31.09;;
67310;Laerm;65444;51.438;5.982;2023-08-24T00:45:55;29.62;28.29;31.21;;
67310;Laerm;65444;51.438;5.982;2023-08-24T00:46:06;29.50;28.25;30.83;;
67310;Laerm;65444;51.438;5.982;2023-08-24T00:46:17;29.72;27.91;31.74;;
67310;Laerm;65444;51.438;5.982;2023-08-24T00:46:28;29.64;28.15;30.91;;
67310;Laerm;65444;51.438;5.982;2023-08-24T00:46:38;29.60;28.25;30.95;;
67310;Laerm;65444;51.438;5.982;2023-08-24T00:46:49;29.59;28.40;31.30;;
67310;Laerm;65444;51.438;5.982;2023-08-24T00:46:59;29.68;28.01;32.98;;
67310;Laerm;65444;51.438;5.982;2023-08-24T00:47:10;29.61;28.24;31.27;;
67310;Laerm;65444;51.438;5.982;2023-08-24T00:47:20;30.10;28.33;33.41;;
67310;Laerm;65444;51.438;5.982;2023-08-24T00:47:31;29.68;27.95;30.98;;
67310;Laerm;65444;51.438;5.982;2023-08-24T00:47:43;30.69;28.36;45.19;;
67310;Laerm;65444;51.438;5.982;2023-08-24T00:47:54;29.93;28.29;34.88;;
67310;Laerm;65444;51.438;5.982;2023-08-24T00:48:05;30.01;28.48;36.24;;
67310;Laerm;65444;51.438;5.982;2023-08-24T00:48:15;29.94;28.51;31.94;;
67310;Laerm;65444;51.438;5.982;2023-08-24T00:48:26;29.93;28.48;32.33;;
67310;Laerm;65444;51.438;5.982;2023-08-24T00:48:38;29.77;28.51;31.40;;
67310;Laerm;65444;51.438;5.982;2023-08-24T00:48:49;29.97;28.55;31.75;;
67310;Laerm;65444;51.438;5.982;2023-08-24T00:48:59;30.06;28.42;32.74;;
67310;Laerm;65444;51.438;5.982;2023-08-24T00:49:16;30.11;28.38;31.73;;
67310;Laerm;65444;51.438;5.982;2023-08-24T00:49:26;30.64;28.50;41.68;;
67310;Laerm;65444;51.438;5.982;2023-08-24T00:49:37;31.19;28.88;38.89;;
67310;Laerm;65444;51.438;5.982;2023-08-24T00:49:47;31.02;28.61;37.09;;
67310;Laerm;65444;51.438;5.982;2023-08-24T00:49:59;32.31;28.96;44.51;;
67310;Laerm;65444;51.438;5.982;2023-08-24T00:50:10;31.70;28.91;35.57;;
67310;Laerm;65444;51.438;5.982;2023-08-24T00:50:22;31.64;28.75;41.66;;
67310;Laerm;65444;51.438;5.982;2023-08-24T00:50:32;30.99;28.88;34.25;;
67310;Laerm;65444;51.438;5.982;2023-08-24T00:50:43;30.84;28.76;34.02;;
67310;Laerm;65444;51.438;5.982;2023-08-24T00:51:02;31.83;28.67;44.82;;
67310;Laerm;65444;51.438;5.982;2023-08-24T00:51:14;30.49;28.29;37.17;;
67310;Laerm;65444;51.438;5.982;2023-08-24T00:51:25;30.93;28.14;34.91;;
67310;Laerm;65444;51.438;5.982;2023-08-24T00:51:35;30.33;28.21;34.36;;
67310;Laerm;65444;51.438;5.982;2023-08-24T00:51:45;31.49;28.48;45.98;;
67310;Laerm;65444;51.438;5.982;2023-08-24T00:51:56;30.34;28.46;35.35;;
67310;Laerm;65444;51.438;5.982;2023-08-24T00:52:06;30.06;28.28;32.58;;
67310;Laerm;65444;51.438;5.982;2023-08-24T00:52:17;30.85;28.38;44.99;;
67310;Laerm;65444;51.438;5.982;2023-08-24T00:52:29;30.08;27.82;37.65;;
67310;Laerm;65444;51.438;5.982;2023-08-24T00:52:41;30.22;28.17;36.31;;
67310;Laerm;65444;51.438;5.982;2023-08-24T00:52:52;30.97;28.76;38.91;;
67310;Laerm;65444;51.438;5.982;2023-08-24T00:53:02;32.91;29.74;38.01;;
67310;Laerm;65444;51.438;5.982;2023-08-24T00:53:13;32.62;29.09;48.06;;
67310;Laerm;65444;51.438;5.982;2023-08-24T00:53:23;31.69;29.48;44.38;;
67310;Laerm;65444;51.438;5.982;2023-08-24T00:53:35;30.83;28.80;41.86;;
67310;Laerm;65444;51.438;5.982;2023-08-24T00:53:46;32.23;29.48;45.26;;
67310;Laerm;65444;51.438;5.982;2023-08-24T00:53:57;30.50;27.82;45.06;;
67310;Laerm;65444;51.438;5.982;2023-08-24T00:54:07;29.47;28.35;31.76;;
67310;Laerm;65444;51.438;5.982;2023-08-24T00:54:18;29.97;27.95;42.28;;
67310;Laerm;65444;51.438;5.982;2023-08-24T00:54:28;29.84;28.06;41.62;;
67310;Laerm;65444;51.438;5.982;2023-08-24T00:54:39;31.23;28.43;44.27;;
67310;Laerm;65444;51.438;5.982;2023-08-24T00:54:49;33.57;31.22;36.38;;
67310;Laerm;65444;51.438;5.982;2023-08-24T00:55:00;35.57;32.46;46.98;;
67310;Laerm;65444;51.438;5.982;2023-08-24T00:55:11;37.80;34.64;41.08;;
67310;Laerm;65444;51.438;5.982;2023-08-24T00:55:22;42.99;39.59;46.33;;
67310;Laerm;65444;51.438;5.982;2023-08-24T00:55:32;43.45;40.91;45.84;;
67310;Laerm;65444;51.438;5.982;2023-08-24T00:55:43;40.87;38.32;44.66;;
67310;Laerm;65444;51.438;5.982;2023-08-24T00:55:53;39.73;37.22;42.32;;
67310;Laerm;65444;51.438;5.982;2023-08-24T00:56:04;39.32;36.76;43.50;;
67310;Laerm;65444;51.438;5.982;2023-08-24T00:56:15;38.68;36.33;41.35;;
67310;Laerm;65444;51.438;5.982;2023-08-24T00:56:25;37.24;32.23;46.51;;
67310;Laerm;65444;51.438;5.982;2023-08-24T00:56:36;32.03;29.71;38.59;;
67310;Laerm;65444;51.438;5.982;2023-08-24T00:56:47;30.91;28.86;44.13;;
67310;Laerm;65444;51.438;5.982;2023-08-24T00:56:57;30.54;28.96;37.36;;
67310;Laerm;65444;51.438;5.982;2023-08-24T00:57:08;29.99;28.47;33.39;;
67310;Laerm;65444;51.438;5.982;2023-08-24T00:57:18;30.32;28.25;40.17;;
67310;Laerm;65444;51.438;5.982;2023-08-24T00:57:29;29.86;28.31;37.68;;
67310;Laerm;65444;51.438;5.982;2023-08-24T00:57:39;29.52;28.34;31.90;;
67310;Laerm;65444;51.438;5.982;2023-08-24T00:57:51;30.38;27.94;45.32;;
67310;Laerm;65444;51.438;5.982;2023-08-24T00:58:02;30.06;28.01;39.38;;
67310;Laerm;65444;51.438;5.982;2023-08-24T00:58:13;29.55;27.95;31.10;;
67310;Laerm;65444;51.438;5.982;2023-08-24T00:58:24;30.31;28.55;42.35;;
67310;Laerm;65444;51.438;5.982;2023-08-24T00:58:36;29.62;28.14;31.78;;
67310;Laerm;65444;51.438;5.982;2023-08-24T00:58:48;30.32;27.94;46.66;;
67310;Laerm;65444;51.438;5.982;2023-08-24T00:58:58;29.52;27.90;34.62;;
67310;Laerm;65444;51.438;5.982;2023-08-24T00:59:09;30.82;27.94;43.62;;
67310;Laerm;65444;51.438;5.982;2023-08-24T00:59:19;29.47;28.09;35.11;;
67310;Laerm;65444;51.438;5.982;2023-08-24T00:59:30;30.14;27.96;44.59;;
67310;Laerm;65444;51.438;5.982;2023-08-24T00:59:41;29.33;28.16;30.62;;
67310;Laerm;65444;51.438;5.982;2023-08-24T00:59:51;31.34;27.99;50.60;;
67310;Laerm;65444;51.438;5.982;2023-08-24T01:00:02;29.78;28.00;44.50;;
67310;Laerm;65444;51.438;5.982;2023-08-24T01:00:15;34.77;27.82;45.73;;
67310;Laerm;65444;51.438;5.982;2023-08-24T01:00:26;29.43;28.19;33.75;;
67310;Laerm;65444;51.438;5.982;2023-08-24T01:00:37;29.50;28.04;30.70;;